KPQI/PQI METAR and TAF weather

Enter ICAO airport designator
Station Type Date Time Source
KPQI METAR 2019/08/26 07:00 UTC NOAA

KPQI 260700Z AUTO 17003KT 1 1/2SM BR CLR 07/06 A3032 RMK AO2


Station Type Date Time Source
KPQI Decoded METAR 2019/08/26 07:00 UTC NOAA

Station name not available
Aug 26, 2019 - 03:00 AM EDT / 2019.08.26 0700 UTC
Wind: from the S (170 degrees) at 3 MPH (3 KT):0
Visibility: 1 1/2 mile(s):0
Sky conditions: clear
Weather: mist
Temperature: 44 F (7 C)
Dew Point: 42 F (6 C)
Relative Humidity: 93%
Pressure (altimeter): 30.32 in. Hg (1026 hPa)
ob: KPQI 260700Z AUTO 17003KT 1 1/2SM BR CLR 07/06 A3032 RMK AO2
cycle: 7

Station Type Date Time Source
KPQI TAF 2019/08/26 06:22 UTC NOAA

TAF KPQI 260520Z 2606/2706 00000KT 6SM MIFG FEW100
TEMPO 2607/2611 1SM MIFG
FM261100 00000KT P6SM FEW100
FM261800 06003KT P6SM SCT060 BKN100

Example: see airport list